Tulsa, OK

11:07 PM CST on December 28, 2014 (GMT -0600)
Thousand Oaks | Change Station
CLOSE
Current Station
Personal Weather Station
Location: Tulsa, OK
Elevation: 742 ft
Nearby Weather Stations

Elev 742 ft 36.04 °N, 95.93 °W | Updated 19 seconds ago

Clear
Clear
29.8 °F
Feels Like 30 °F
N
0.0
Wind Variable Wind from NE
Gusts 1.0 mph

Today
High -- | Low -- °F
--% Chance of Precip.
Yesterday
High -- | Low -- °F
Precip. -- in
7:33 AM 5:17 PM
First Quarter, 55% visible
Pressure 30.21 in
Visibility 10.0 miles
Clouds Clear
Windchill 30 °F
Dew Point 25 °F
Humidity 83%
Rainfall 0.07 in
Snow Depth Not available.
UV 0 out of 12
Pollen 5.10 out of 12
Air Quality Not available.
Flu Activity Not available.
METAR KRVS 290453Z AUTO 00000KT 10SM CLR M04/M06 A3018 RMK AO2 SLP230 I1000 T10391056

More Conditions Fewer Conditions

Pressure 30.21 in
Visibility 10.0 miles
Clouds Clear
Windchill 30 °F
Dew Point 25 °F
Humidity 83%
Rainfall 0.07 in
Snow Depth Not available.
UV 0 out of 12
Pollen 5.10 out of 12
Air Quality Not available.
Flu Activity Not available.
METAR KRVS 290453Z AUTO 00000KT 10SM CLR M04/M06 A3018 RMK AO2 SLP230 I1000 T10391056

More Conditions Fewer Conditions

10-Day Weather Forecast

Almanac

Astronomy

Dec. 28, 2014 Rise Set
Actual Time
Civil Twilight
Nautical Twilight
Astronomical Twilight
Moon
Length of Visible Light
Length of Day
Tomorrow will be .
, % of the Moon is Illuminated

Today's Extremes

State Highs State Lows

Community

WunderPhotos

Upload Photos

1,781,529 photos uploaded!

WunderBlogs® & News

Nearby

Air Quality

  Air Quality AQ Index Pollutant
Not available.

Snow Depth

Station Depth Elevation

Earthquake Activity

City Distance Mag. Time & Date
Minimum magnitude displayed is 2.5.

Coastal Water Temperatures

Place Temperature

Nearby Weather Stations